This is the latest recevied weather packets stored in our database for station/object N4ZIQ. If no packets are shown the sender has not sent any weather packets the latest 10 day(s).
| Time | Temp. | Humidity | Pressure | Rain* | Wind** | Luminosity | Snow |
|---|---|---|---|---|---|---|---|
| 1778212544 | 21.67° C | 76% | 1014.4 hPa | 0 mm | - | 0 W/m² | - |
| 1778212246 | 21.67° C | 77% | 1014.3 hPa | 0 mm | - | 0 W/m² | - |
| 1778211958 | 22.22° C | 72% | 1014.4 hPa | 0 mm | - | 0 W/m² | - |
| 1778211648 | 22.78° C | 73% | 1014.3 hPa | 0 mm | - | 0 W/m² | - |
| 1778211348 | 23.33° C | 72% | 1014.3 hPa | 0 mm | - | 0 W/m² | - |
| 1778211054 | 23.33° C | 71% | 1014.3 hPa | 0 mm | - | 0 W/m² | - |
| 1778210748 | 23.89° C | 70% | 1014.2 hPa | 0 mm | - | 0 W/m² | - |
| 1778210446 | 23.89° C | 70% | 1014.2 hPa | 0 mm | - | 0 W/m² | - |
| 1778210157 | 23.33° C | 70% | 1014.2 hPa | 0 mm | - | 0 W/m² | - |
| 1778209847 | 23.33° C | 70% | 1014.2 hPa | 0 mm | - | 0 W/m² | - |
| 1778209548 | 22.78° C | 69% | 1014.1 hPa | 0 mm | - | 0 W/m² | - |
| 1778209258 | 23.33° C | 68% | 1014.1 hPa | 0 mm | - | 0 W/m² | - |
| 1778208948 | 23.33° C | 68% | 1014.1 hPa | 0 mm | - | 0 W/m² | - |
| 1778208647 | 22.78° C | 69% | 1014.3 hPa | 0 mm | - | 0 W/m² | - |
| 1778208357 | 22.78° C | 67% | 1014.2 hPa | 0 mm | - | 0 W/m² | - |
| 1778208049 | 23.33° C | 64% | 1014.2 hPa | 0 mm | - | 0 W/m² | - |
| 1778207744 | 24.44° C | 62% | 1014.2 hPa | 0 mm | - | 0 W/m² | - |
| 1778207453 | 24.44° C | 61% | 1014.2 hPa | 0 mm | - | 0 W/m² | - |
| 1778207148 | 25.56° C | 58% | 1014.2 hPa | 0 mm | - | 0 W/m² | - |
| 1778206847 | 25.56° C | 58% | 1014.2 hPa | 0 mm | - | 0 W/m² | - |
| 1778206558 | 25.56° C | 57% | 1014.1 hPa | 0 mm | - | 0 W/m² | - |
| 1778206249 | 25.56° C | 56% | 1014 hPa | 0 mm | - | 0 W/m² | - |
| 1778205948 | 25.56° C | 56% | 1014 hPa | 0 mm | - | 0 W/m² | - |
| 1778205653 | 25.56° C | 56% | 1014.1 hPa | 0 mm | - | 0 W/m² | - |
| 1778205347 | 25° C | 57% | 1014.1 hPa | 0 mm | - | 0 W/m² | - |
* Rain latest hour (hover to see other rain measurements)
** Current wind speed in m/s (hover to see current wind gust speed)